Terminal Aerodrome Forecast
Issued by NWS

Home | Current Version | Previous Version | Text Only | Print | Product List | Glossary Off
Versions: 1 2 3 4 5 6 7 8 9 10 11 12 13 14 15 16 17

000
FTUS43 KTOP 290828 AAA
TAFMHK
TAF AMD
KMHK 290828Z 2908/3006 03013KT P6SM VCTS SCT060CB
      TEMPO 2908/2911 04012G25KT 5SM TSRA BR BKN010 OVC040CB
     FM291200 04009KT P6SM SCT040 BKN150=

USA.gov is the U.S. government's official web portal to all federal, state and local government web resources and services.